sensor_id;sensor_type;location;lat;lon;timestamp;temperature;humidity
15625;DHT22;7912;51.376;6.126;2023-07-16T00:02:08;21.60;99.90
15625;DHT22;7912;51.376;6.126;2023-07-16T00:04:36;21.60;99.90
15625;DHT22;7912;51.376;6.126;2023-07-16T00:07:05;21.50;99.90
15625;DHT22;7912;51.376;6.126;2023-07-16T00:09:33;21.50;99.90
15625;DHT22;7912;51.376;6.126;2023-07-16T00:12:00;21.50;99.90
15625;DHT22;7912;51.376;6.126;2023-07-16T00:14:28;21.40;99.90
15625;DHT22;7912;51.376;6.126;2023-07-16T00:16:59;21.40;99.90
15625;DHT22;7912;51.376;6.126;2023-07-16T00:19:26;21.40;99.90
15625;DHT22;7912;51.376;6.126;2023-07-16T00:21:59;21.30;99.90
15625;DHT22;7912;51.376;6.126;2023-07-16T00:25:15;21.30;99.90
15625;DHT22;7912;51.376;6.126;2023-07-16T00:27:43;21.30;99.90
15625;DHT22;7912;51.376;6.126;2023-07-16T00:30:11;21.30;99.90
15625;DHT22;7912;51.376;6.126;2023-07-16T00:32:39;21.30;99.90
15625;DHT22;7912;51.376;6.126;2023-07-16T00:35:09;21.20;99.90
15625;DHT22;7912;51.376;6.126;2023-07-16T00:37:37;21.20;99.90
15625;DHT22;7912;51.376;6.126;2023-07-16T00:40:06;21.20;99.90
15625;DHT22;7912;51.376;6.126;2023-07-16T00:42:34;21.20;99.90
15625;DHT22;7912;51.376;6.126;2023-07-16T00:45:02;21.10;99.90
15625;DHT22;7912;51.376;6.126;2023-07-16T00:47:36;21.10;99.90
15625;DHT22;7912;51.376;6.126;2023-07-16T00:50:04;21.10;99.90
15625;DHT22;7912;51.376;6.126;2023-07-16T00:52:33;21.10;99.90
15625;DHT22;7912;51.376;6.126;2023-07-16T00:55:01;21.10;99.90
15625;DHT22;7912;51.376;6.126;2023-07-16T00:57:30;21.10;99.90
15625;DHT22;7912;51.376;6.126;2023-07-16T00:59:58;21.10;99.90
15625;DHT22;7912;51.376;6.126;2023-07-16T01:02:26;21.10;99.90
15625;DHT22;7912;51.376;6.126;2023-07-16T01:04:54;21.00;99.90
15625;DHT22;7912;51.376;6.126;2023-07-16T01:07:27;21.00;99.90
15625;DHT22;7912;51.376;6.126;2023-07-16T01:09:59;21.00;99.90
15625;DHT22;7912;51.376;6.126;2023-07-16T01:12:29;21.00;99.90
15625;DHT22;7912;51.376;6.126;2023-07-16T01:15:00;20.90;99.90
15625;DHT22;7912;51.376;6.126;2023-07-16T01:17:29;20.90;99.90
15625;DHT22;7912;51.376;6.126;2023-07-16T01:19:57;20.90;99.90
15625;DHT22;7912;51.376;6.126;2023-07-16T01:22:32;20.90;99.90
15625;DHT22;7912;51.376;6.126;2023-07-16T01:28:39;20.80;99.90
15625;DHT22;7912;51.376;6.126;2023-07-16T01:31:21;20.80;99.90
15625;DHT22;7912;51.376;6.126;2023-07-16T01:33:51;20.80;99.90
15625;DHT22;7912;51.376;6.126;2023-07-16T01:36:23;20.80;99.90
15625;DHT22;7912;51.376;6.126;2023-07-16T01:38:52;20.70;99.90
15625;DHT22;7912;51.376;6.126;2023-07-16T01:41:20;20.70;99.90
15625;DHT22;7912;51.376;6.126;2023-07-16T01:43:47;20.70;99.90
15625;DHT22;7912;51.376;6.126;2023-07-16T01:46:15;20.60;99.90
15625;DHT22;7912;51.376;6.126;2023-07-16T01:48:43;20.60;99.90
15625;DHT22;7912;51.376;6.126;2023-07-16T01:51:14;20.60;99.90
15625;DHT22;7912;51.376;6.126;2023-07-16T01:53:43;20.60;99.90
15625;DHT22;7912;51.376;6.126;2023-07-16T01:59:36;20.50;99.90
15625;DHT22;7912;51.376;6.126;2023-07-16T02:02:04;20.50;99.90
15625;DHT22;7912;51.376;6.126;2023-07-16T02:04:32;20.50;99.90
15625;DHT22;7912;51.376;6.126;2023-07-16T02:07:00;20.40;99.90
15625;DHT22;7912;51.376;6.126;2023-07-16T02:09:28;20.40;99.90
15625;DHT22;7912;51.376;6.126;2023-07-16T02:11:56;20.40;99.90
15625;DHT22;7912;51.376;6.126;2023-07-16T02:14:24;20.40;99.90
15625;DHT22;7912;51.376;6.126;2023-07-16T02:16:52;20.40;99.90
15625;DHT22;7912;51.376;6.126;2023-07-16T02:19:20;20.30;99.90
15625;DHT22;7912;51.376;6.126;2023-07-16T02:21:47;20.30;99.90
15625;DHT22;7912;51.376;6.126;2023-07-16T02:24:15;20.40;99.90
15625;DHT22;7912;51.376;6.126;2023-07-16T02:26:42;20.30;99.90
15625;DHT22;7912;51.376;6.126;2023-07-16T02:29:10;20.30;99.90
15625;DHT22;7912;51.376;6.126;2023-07-16T02:31:38;20.30;99.90
15625;DHT22;7912;51.376;6.126;2023-07-16T02:34:05;20.30;99.90
15625;DHT22;7912;51.376;6.126;2023-07-16T02:36:33;20.30;99.90
15625;DHT22;7912;51.376;6.126;2023-07-16T02:39:00;20.20;99.90
15625;DHT22;7912;51.376;6.126;2023-07-16T02:41:28;20.20;99.90
15625;DHT22;7912;51.376;6.126;2023-07-16T02:44:00;20.20;99.90
15625;DHT22;7912;51.376;6.126;2023-07-16T02:46:30;20.20;99.90
15625;DHT22;7912;51.376;6.126;2023-07-16T02:48:58;20.10;99.90
15625;DHT22;7912;51.376;6.126;2023-07-16T02:51:25;20.10;99.90
15625;DHT22;7912;51.376;6.126;2023-07-16T02:53:53;20.10;99.90
15625;DHT22;7912;51.376;6.126;2023-07-16T02:56:21;20.10;99.90
15625;DHT22;7912;51.376;6.126;2023-07-16T02:58:48;20.00;99.90
15625;DHT22;7912;51.376;6.126;2023-07-16T03:01:15;20.00;99.90
15625;DHT22;7912;51.376;6.126;2023-07-16T03:03:43;20.00;99.90
15625;DHT22;7912;51.376;6.126;2023-07-16T03:06:11;19.90;99.90
15625;DHT22;7912;51.376;6.126;2023-07-16T03:08:41;19.90;99.90
15625;DHT22;7912;51.376;6.126;2023-07-16T03:11:08;19.90;99.90
15625;DHT22;7912;51.376;6.126;2023-07-16T03:13:36;19.90;99.90
15625;DHT22;7912;51.376;6.126;2023-07-16T03:16:04;19.90;99.90
15625;DHT22;7912;51.376;6.126;2023-07-16T03:18:33;19.80;99.90
15625;DHT22;7912;51.376;6.126;2023-07-16T03:21:00;19.80;99.90
15625;DHT22;7912;51.376;6.126;2023-07-16T03:23:28;19.80;99.90
15625;DHT22;7912;51.376;6.126;2023-07-16T03:25:55;19.70;99.90
15625;DHT22;7912;51.376;6.126;2023-07-16T03:28:22;19.70;99.90
15625;DHT22;7912;51.376;6.126;2023-07-16T03:30:53;19.70;99.90
15625;DHT22;7912;51.376;6.126;2023-07-16T03:33:21;19.60;99.90
15625;DHT22;7912;51.376;6.126;2023-07-16T03:35:49;19.50;99.90
15625;DHT22;7912;51.376;6.126;2023-07-16T03:38:17;19.50;99.90
15625;DHT22;7912;51.376;6.126;2023-07-16T03:40:49;19.50;99.90
15625;DHT22;7912;51.376;6.126;2023-07-16T03:43:17;19.50;99.90
15625;DHT22;7912;51.376;6.126;2023-07-16T03:45:45;19.40;99.90
15625;DHT22;7912;51.376;6.126;2023-07-16T03:48:13;19.40;99.90
15625;DHT22;7912;51.376;6.126;2023-07-16T03:50:41;19.30;99.90
15625;DHT22;7912;51.376;6.126;2023-07-16T03:53:08;19.30;99.90
15625;DHT22;7912;51.376;6.126;2023-07-16T03:55:36;19.30;99.90
15625;DHT22;7912;51.376;6.126;2023-07-16T03:58:04;19.20;99.90
15625;DHT22;7912;51.376;6.126;2023-07-16T04:00:31;19.20;99.90
15625;DHT22;7912;51.376;6.126;2023-07-16T04:03:00;19.20;99.90
15625;DHT22;7912;51.376;6.126;2023-07-16T04:05:28;19.20;99.90
15625;DHT22;7912;51.376;6.126;2023-07-16T04:07:55;19.10;99.90
15625;DHT22;7912;51.376;6.126;2023-07-16T04:10:23;19.10;99.90
15625;DHT22;7912;51.376;6.126;2023-07-16T04:12:51;19.10;99.90
15625;DHT22;7912;51.376;6.126;2023-07-16T04:15:19;19.10;99.90
15625;DHT22;7912;51.376;6.126;2023-07-16T04:17:47;19.10;99.90
15625;DHT22;7912;51.376;6.126;2023-07-16T04:20:14;19.10;99.90
15625;DHT22;7912;51.376;6.126;2023-07-16T04:22:42;19.00;99.90
15625;DHT22;7912;51.376;6.126;2023-07-16T04:25:10;19.00;99.90
15625;DHT22;7912;51.376;6.126;2023-07-16T04:27:38;19.00;99.90
15625;DHT22;7912;51.376;6.126;2023-07-16T04:30:08;19.00;99.90
15625;DHT22;7912;51.376;6.126;2023-07-16T04:32:36;19.00;99.90
15625;DHT22;7912;51.376;6.126;2023-07-16T04:35:04;19.00;99.90
15625;DHT22;7912;51.376;6.126;2023-07-16T04:37:32;19.00;99.90
15625;DHT22;7912;51.376;6.126;2023-07-16T04:40:00;19.00;99.90
15625;DHT22;7912;51.376;6.126;2023-07-16T04:42:27;19.00;99.90
15625;DHT22;7912;51.376;6.126;2023-07-16T04:44:55;19.00;99.90
15625;DHT22;7912;51.376;6.126;2023-07-16T04:47:22;19.00;99.90
15625;DHT22;7912;51.376;6.126;2023-07-16T04:49:50;19.00;99.90
15625;DHT22;7912;51.376;6.126;2023-07-16T04:52:17;19.00;99.90
15625;DHT22;7912;51.376;6.126;2023-07-16T04:54:45;19.10;99.90
15625;DHT22;7912;51.376;6.126;2023-07-16T04:57:15;19.10;99.90
15625;DHT22;7912;51.376;6.126;2023-07-16T04:59:42;19.10;99.90
15625;DHT22;7912;51.376;6.126;2023-07-16T05:02:10;19.20;99.90
15625;DHT22;7912;51.376;6.126;2023-07-16T05:04:38;19.10;99.90
15625;DHT22;7912;51.376;6.126;2023-07-16T05:07:05;19.20;99.90
15625;DHT22;7912;51.376;6.126;2023-07-16T05:09:33;19.20;99.90
15625;DHT22;7912;51.376;6.126;2023-07-16T05:12:01;19.20;99.90
15625;DHT22;7912;51.376;6.126;2023-07-16T05:14:29;19.30;99.90
15625;DHT22;7912;51.376;6.126;2023-07-16T05:16:56;19.30;99.90
15625;DHT22;7912;51.376;6.126;2023-07-16T05:19:24;19.30;99.90
15625;DHT22;7912;51.376;6.126;2023-07-16T05:21:52;19.40;99.90
15625;DHT22;7912;51.376;6.126;2023-07-16T05:24:19;19.40;99.90
15625;DHT22;7912;51.376;6.126;2023-07-16T05:26:47;19.40;99.90
15625;DHT22;7912;51.376;6.126;2023-07-16T05:29:15;19.50;99.90
15625;DHT22;7912;51.376;6.126;2023-07-16T05:31:44;19.50;99.90
15625;DHT22;7912;51.376;6.126;2023-07-16T05:34:13;19.60;99.90
15625;DHT22;7912;51.376;6.126;2023-07-16T05:36:42;19.60;99.90
15625;DHT22;7912;51.376;6.126;2023-07-16T05:39:11;19.60;99.90
15625;DHT22;7912;51.376;6.126;2023-07-16T05:41:39;19.70;99.90
15625;DHT22;7912;51.376;6.126;2023-07-16T05:44:08;19.70;99.90
15625;DHT22;7912;51.376;6.126;2023-07-16T05:46:35;19.80;99.90
15625;DHT22;7912;51.376;6.126;2023-07-16T05:49:04;19.80;99.90
15625;DHT22;7912;51.376;6.126;2023-07-16T05:51:32;19.90;99.90
15625;DHT22;7912;51.376;6.126;2023-07-16T05:54:00;19.90;99.90
15625;DHT22;7912;51.376;6.126;2023-07-16T05:56:27;19.90;99.90
15625;DHT22;7912;51.376;6.126;2023-07-16T05:58:55;19.90;99.90
15625;DHT22;7912;51.376;6.126;2023-07-16T06:01:23;20.00;99.90
15625;DHT22;7912;51.376;6.126;2023-07-16T06:03:51;20.00;99.90
15625;DHT22;7912;51.376;6.126;2023-07-16T06:06:19;20.00;99.90
15625;DHT22;7912;51.376;6.126;2023-07-16T06:08:46;20.10;99.90
15625;DHT22;7912;51.376;6.126;2023-07-16T06:11:15;20.10;99.90
15625;DHT22;7912;51.376;6.126;2023-07-16T06:13:42;20.10;99.90
15625;DHT22;7912;51.376;6.126;2023-07-16T06:16:10;20.20;99.90
15625;DHT22;7912;51.376;6.126;2023-07-16T06:18:38;20.20;99.90
15625;DHT22;7912;51.376;6.126;2023-07-16T06:21:05;20.20;99.90
15625;DHT22;7912;51.376;6.126;2023-07-16T06:23:35;20.30;99.90
15625;DHT22;7912;51.376;6.126;2023-07-16T06:26:02;20.30;99.90
15625;DHT22;7912;51.376;6.126;2023-07-16T06:28:31;20.30;99.90
15625;DHT22;7912;51.376;6.126;2023-07-16T06:30:59;20.40;99.90
15625;DHT22;7912;51.376;6.126;2023-07-16T06:33:27;20.40;99.90
15625;DHT22;7912;51.376;6.126;2023-07-16T06:35:55;20.50;99.90
15625;DHT22;7912;51.376;6.126;2023-07-16T06:38:23;20.50;99.90
15625;DHT22;7912;51.376;6.126;2023-07-16T06:40:55;20.60;99.90
15625;DHT22;7912;51.376;6.126;2023-07-16T06:43:22;20.70;99.90
15625;DHT22;7912;51.376;6.126;2023-07-16T06:45:51;20.80;99.90
15625;DHT22;7912;51.376;6.126;2023-07-16T06:48:19;20.90;99.90
15625;DHT22;7912;51.376;6.126;2023-07-16T06:50:47;21.10;99.90
15625;DHT22;7912;51.376;6.126;2023-07-16T06:53:15;21.20;99.90
15625;DHT22;7912;51.376;6.126;2023-07-16T06:55:43;21.40;99.90
15625;DHT22;7912;51.376;6.126;2023-07-16T06:58:15;21.60;99.90
15625;DHT22;7912;51.376;6.126;2023-07-16T07:00:43;21.80;99.90
15625;DHT22;7912;51.376;6.126;2023-07-16T07:03:11;22.00;99.90
15625;DHT22;7912;51.376;6.126;2023-07-16T07:05:41;22.20;99.90
15625;DHT22;7912;51.376;6.126;2023-07-16T07:08:09;22.40;99.90
15625;DHT22;7912;51.376;6.126;2023-07-16T07:10:36;22.60;99.90
15625;DHT22;7912;51.376;6.126;2023-07-16T07:13:06;22.80;99.90
15625;DHT22;7912;51.376;6.126;2023-07-16T07:15:34;23.00;99.90
15625;DHT22;7912;51.376;6.126;2023-07-16T07:18:02;23.30;99.90
15625;DHT22;7912;51.376;6.126;2023-07-16T07:20:30;23.50;99.90
15625;DHT22;7912;51.376;6.126;2023-07-16T07:22:57;23.70;99.90
15625;DHT22;7912;51.376;6.126;2023-07-16T07:25:29;23.90;99.90
15625;DHT22;7912;51.376;6.126;2023-07-16T07:27:57;24.10;99.90
15625;DHT22;7912;51.376;6.126;2023-07-16T07:30:25;24.20;99.90
15625;DHT22;7912;51.376;6.126;2023-07-16T07:32:53;24.30;99.90
15625;DHT22;7912;51.376;6.126;2023-07-16T07:38:45;24.60;98.00
15625;DHT22;7912;51.376;6.126;2023-07-16T07:41:32;24.80;98.80
15625;DHT22;7912;51.376;6.126;2023-07-16T07:43:59;24.90;97.10
15625;DHT22;7912;51.376;6.126;2023-07-16T07:46:27;25.00;98.20
15625;DHT22;7912;51.376;6.126;2023-07-16T07:48:54;25.20;98.20
15625;DHT22;7912;51.376;6.126;2023-07-16T07:51:22;25.40;97.80
15625;DHT22;7912;51.376;6.126;2023-07-16T07:53:50;25.50;96.90
15625;DHT22;7912;51.376;6.126;2023-07-16T07:56:18;25.70;96.50
15625;DHT22;7912;51.376;6.126;2023-07-16T07:58:46;25.80;96.00
15625;DHT22;7912;51.376;6.126;2023-07-16T08:01:14;25.90;95.40
15625;DHT22;7912;51.376;6.126;2023-07-16T08:03:41;26.00;95.00
15625;DHT22;7912;51.376;6.126;2023-07-16T08:06:09;26.20;95.10
15625;DHT22;7912;51.376;6.126;2023-07-16T08:08:39;26.20;94.80
15625;DHT22;7912;51.376;6.126;2023-07-16T08:11:07;26.30;94.30
15625;DHT22;7912;51.376;6.126;2023-07-16T08:13:34;26.50;93.90
15625;DHT22;7912;51.376;6.126;2023-07-16T08:16:04;26.50;93.40
15625;DHT22;7912;51.376;6.126;2023-07-16T08:21:56;26.50;92.40
15625;DHT22;7912;51.376;6.126;2023-07-16T08:24:27;26.60;93.00
15625;DHT22;7912;51.376;6.126;2023-07-16T08:26:57;26.60;92.80
15625;DHT22;7912;51.376;6.126;2023-07-16T08:29:25;26.70;93.00
15625;DHT22;7912;51.376;6.126;2023-07-16T08:31:53;26.80;92.30
15625;DHT22;7912;51.376;6.126;2023-07-16T08:34:20;26.90;92.10
15625;DHT22;7912;51.376;6.126;2023-07-16T08:36:48;26.90;92.50
15625;DHT22;7912;51.376;6.126;2023-07-16T08:39:16;27.00;92.30
15625;DHT22;7912;51.376;6.126;2023-07-16T08:41:48;27.10;92.10
15625;DHT22;7912;51.376;6.126;2023-07-16T08:44:23;27.30;91.70
15625;DHT22;7912;51.376;6.126;2023-07-16T08:46:51;27.40;90.70
15625;DHT22;7912;51.376;6.126;2023-07-16T08:49:22;27.60;90.50
15625;DHT22;7912;51.376;6.126;2023-07-16T08:51:50;27.60;88.90
15625;DHT22;7912;51.376;6.126;2023-07-16T08:54:22;27.70;89.10
15625;DHT22;7912;51.376;6.126;2023-07-16T08:56:50;27.80;87.90
15625;DHT22;7912;51.376;6.126;2023-07-16T08:59:20;27.90;87.20
15625;DHT22;7912;51.376;6.126;2023-07-16T09:01:48;27.90;87.60
15625;DHT22;7912;51.376;6.126;2023-07-16T09:04:19;28.00;88.90
15625;DHT22;7912;51.376;6.126;2023-07-16T09:06:49;28.10;87.80
15625;DHT22;7912;51.376;6.126;2023-07-16T09:09:22;28.20;87.10
15625;DHT22;7912;51.376;6.126;2023-07-16T09:11:50;28.30;84.70
15625;DHT22;7912;51.376;6.126;2023-07-16T09:14:19;28.30;85.20
15625;DHT22;7912;51.376;6.126;2023-07-16T09:16:51;28.40;84.60
15625;DHT22;7912;51.376;6.126;2023-07-16T09:19:20;28.40;84.00
15625;DHT22;7912;51.376;6.126;2023-07-16T09:21:51;28.40;84.30
15625;DHT22;7912;51.376;6.126;2023-07-16T09:24:22;28.50;82.70
15625;DHT22;7912;51.376;6.126;2023-07-16T09:26:50;28.60;84.30
15625;DHT22;7912;51.376;6.126;2023-07-16T09:29:19;28.60;83.50
15625;DHT22;7912;51.376;6.126;2023-07-16T09:31:58;28.70;83.20
15625;DHT22;7912;51.376;6.126;2023-07-16T09:34:29;28.80;80.70
15625;DHT22;7912;51.376;6.126;2023-07-16T09:36:59;28.90;81.40
15625;DHT22;7912;51.376;6.126;2023-07-16T09:39:28;29.00;80.50
15625;DHT22;7912;51.376;6.126;2023-07-16T09:41:56;29.10;79.30
15625;DHT22;7912;51.376;6.126;2023-07-16T09:44:25;29.10;79.20
15625;DHT22;7912;51.376;6.126;2023-07-16T09:46:52;29.00;77.80
15625;DHT22;7912;51.376;6.126;2023-07-16T09:49:20;29.00;77.30
15625;DHT22;7912;51.376;6.126;2023-07-16T09:51:48;28.90;77.20
15625;DHT22;7912;51.376;6.126;2023-07-16T09:54:25;28.70;77.00
15625;DHT22;7912;51.376;6.126;2023-07-16T09:56:58;28.60;77.20
15625;DHT22;7912;51.376;6.126;2023-07-16T09:59:30;28.50;76.80
15625;DHT22;7912;51.376;6.126;2023-07-16T10:01:59;28.40;77.60
15625;DHT22;7912;51.376;6.126;2023-07-16T10:04:37;28.30;78.70
15625;DHT22;7912;51.376;6.126;2023-07-16T10:07:07;28.30;77.80
15625;DHT22;7912;51.376;6.126;2023-07-16T10:09:55;28.30;78.40
15625;DHT22;7912;51.376;6.126;2023-07-16T10:12:25;28.30;77.00
15625;DHT22;7912;51.376;6.126;2023-07-16T10:14:55;28.30;76.40
15625;DHT22;7912;51.376;6.126;2023-07-16T10:17:30;28.20;75.90
15625;DHT22;7912;51.376;6.126;2023-07-16T10:19:59;28.10;76.40
15625;DHT22;7912;51.376;6.126;2023-07-16T10:22:38;28.00;77.00
15625;DHT22;7912;51.376;6.126;2023-07-16T10:27:48;27.80;78.30
15625;DHT22;7912;51.376;6.126;2023-07-16T10:30:17;27.90;79.20
15625;DHT22;7912;51.376;6.126;2023-07-16T10:32:44;27.90;79.10
15625;DHT22;7912;51.376;6.126;2023-07-16T10:35:14;27.90;79.10
15625;DHT22;7912;51.376;6.126;2023-07-16T10:37:41;27.90;79.10
15625;DHT22;7912;51.376;6.126;2023-07-16T10:40:12;27.90;79.60
15625;DHT22;7912;51.376;6.126;2023-07-16T10:42:42;27.90;78.00
15625;DHT22;7912;51.376;6.126;2023-07-16T10:45:14;27.90;78.20
15625;DHT22;7912;51.376;6.126;2023-07-16T10:47:54;28.00;78.70
15625;DHT22;7912;51.376;6.126;2023-07-16T10:50:22;28.00;77.70
15625;DHT22;7912;51.376;6.126;2023-07-16T10:52:54;28.10;77.90
15625;DHT22;7912;51.376;6.126;2023-07-16T10:55:29;28.20;78.80
15625;DHT22;7912;51.376;6.126;2023-07-16T10:58:04;28.30;77.40
15625;DHT22;7912;51.376;6.126;2023-07-16T11:00:39;28.30;77.80
15625;DHT22;7912;51.376;6.126;2023-07-16T11:03:07;28.30;77.00
15625;DHT22;7912;51.376;6.126;2023-07-16T11:05:36;28.40;77.00
15625;DHT22;7912;51.376;6.126;2023-07-16T11:08:03;28.50;77.70
15625;DHT22;7912;51.376;6.126;2023-07-16T11:10:30;28.60;78.30
15625;DHT22;7912;51.376;6.126;2023-07-16T11:12:58;28.70;77.50
15625;DHT22;7912;51.376;6.126;2023-07-16T11:15:34;28.80;76.50
15625;DHT22;7912;51.376;6.126;2023-07-16T11:18:02;29.00;75.40
15625;DHT22;7912;51.376;6.126;2023-07-16T11:20:30;29.10;75.60
15625;DHT22;7912;51.376;6.126;2023-07-16T11:22:59;29.30;74.70
15625;DHT22;7912;51.376;6.126;2023-07-16T11:25:28;29.40;73.70
15625;DHT22;7912;51.376;6.126;2023-07-16T11:27:56;29.50;74.40
15625;DHT22;7912;51.376;6.126;2023-07-16T11:30:24;29.60;74.10
15625;DHT22;7912;51.376;6.126;2023-07-16T11:32:52;29.60;73.00
15625;DHT22;7912;51.376;6.126;2023-07-16T11:35:20;29.70;72.30
15625;DHT22;7912;51.376;6.126;2023-07-16T11:37:48;29.70;72.70
15625;DHT22;7912;51.376;6.126;2023-07-16T11:40:17;29.70;71.50
15625;DHT22;7912;51.376;6.126;2023-07-16T11:42:46;29.70;71.90
15625;DHT22;7912;51.376;6.126;2023-07-16T11:45:21;29.70;72.30
15625;DHT22;7912;51.376;6.126;2023-07-16T11:47:50;29.80;70.90
15625;DHT22;7912;51.376;6.126;2023-07-16T11:50:17;29.80;71.60
15625;DHT22;7912;51.376;6.126;2023-07-16T11:52:55;29.90;70.50
15625;DHT22;7912;51.376;6.126;2023-07-16T11:55:33;30.00;69.00
15625;DHT22;7912;51.376;6.126;2023-07-16T11:58:02;30.00;69.40
15625;DHT22;7912;51.376;6.126;2023-07-16T12:00:30;30.00;69.10
15625;DHT22;7912;51.376;6.126;2023-07-16T12:02:57;30.10;68.50
15625;DHT22;7912;51.376;6.126;2023-07-16T12:05:25;30.10;68.50
15625;DHT22;7912;51.376;6.126;2023-07-16T12:08:14;30.10;68.30
15625;DHT22;7912;51.376;6.126;2023-07-16T12:10:41;30.10;68.10
15625;DHT22;7912;51.376;6.126;2023-07-16T12:13:09;30.10;67.90
15625;DHT22;7912;51.376;6.126;2023-07-16T12:15:36;30.10;67.30
15625;DHT22;7912;51.376;6.126;2023-07-16T12:18:04;30.10;67.20
15625;DHT22;7912;51.376;6.126;2023-07-16T12:24:35;30.00;66.70
15625;DHT22;7912;51.376;6.126;2023-07-16T12:27:03;30.00;66.90
15625;DHT22;7912;51.376;6.126;2023-07-16T12:29:30;30.00;66.50
15625;DHT22;7912;51.376;6.126;2023-07-16T12:31:58;30.00;66.70
15625;DHT22;7912;51.376;6.126;2023-07-16T12:34:26;29.90;65.80
15625;DHT22;7912;51.376;6.126;2023-07-16T12:36:56;29.90;65.80
15625;DHT22;7912;51.376;6.126;2023-07-16T12:39:26;29.90;65.80
15625;DHT22;7912;51.376;6.126;2023-07-16T12:41:54;29.90;65.90
15625;DHT22;7912;51.376;6.126;2023-07-16T12:44:21;30.00;66.00
15625;DHT22;7912;51.376;6.126;2023-07-16T12:46:48;30.00;65.70
15625;DHT22;7912;51.376;6.126;2023-07-16T12:49:16;30.10;65.80
15625;DHT22;7912;51.376;6.126;2023-07-16T12:51:43;30.20;65.50
15625;DHT22;7912;51.376;6.126;2023-07-16T12:54:10;30.20;64.80
15625;DHT22;7912;51.376;6.126;2023-07-16T12:56:38;30.30;64.40
15625;DHT22;7912;51.376;6.126;2023-07-16T12:59:05;30.40;64.80
15625;DHT22;7912;51.376;6.126;2023-07-16T13:01:34;30.50;65.10
15625;DHT22;7912;51.376;6.126;2023-07-16T13:04:01;30.60;64.70
15625;DHT22;7912;51.376;6.126;2023-07-16T13:06:29;30.60;64.70
15625;DHT22;7912;51.376;6.126;2023-07-16T13:08:56;30.70;64.90
15625;DHT22;7912;51.376;6.126;2023-07-16T13:11:24;30.70;64.50
15625;DHT22;7912;51.376;6.126;2023-07-16T13:13:52;30.70;64.10
15625;DHT22;7912;51.376;6.126;2023-07-16T13:16:21;30.70;63.70
15625;DHT22;7912;51.376;6.126;2023-07-16T13:18:49;30.70;63.90
15625;DHT22;7912;51.376;6.126;2023-07-16T13:21:16;30.70;64.20
15625;DHT22;7912;51.376;6.126;2023-07-16T13:23:43;30.70;64.20
15625;DHT22;7912;51.376;6.126;2023-07-16T13:26:11;30.80;64.10
15625;DHT22;7912;51.376;6.126;2023-07-16T13:28:40;31.00;63.50
15625;DHT22;7912;51.376;6.126;2023-07-16T13:31:08;31.10;63.70
15625;DHT22;7912;51.376;6.126;2023-07-16T13:33:35;31.20;63.80
15625;DHT22;7912;51.376;6.126;2023-07-16T13:36:03;31.40;62.50
15625;DHT22;7912;51.376;6.126;2023-07-16T13:38:32;31.60;62.10
15625;DHT22;7912;51.376;6.126;2023-07-16T13:40:59;31.70;61.50
15625;DHT22;7912;51.376;6.126;2023-07-16T13:43:27;31.80;62.20
15625;DHT22;7912;51.376;6.126;2023-07-16T13:45:54;32.00;61.20
15625;DHT22;7912;51.376;6.126;2023-07-16T13:48:22;32.20;60.70
15625;DHT22;7912;51.376;6.126;2023-07-16T13:50:49;32.30;60.80
15625;DHT22;7912;51.376;6.126;2023-07-16T13:53:17;32.40;59.70
15625;DHT22;7912;51.376;6.126;2023-07-16T13:55:44;32.40;59.00
15625;DHT22;7912;51.376;6.126;2023-07-16T13:58:14;32.40;59.20
15625;DHT22;7912;51.376;6.126;2023-07-16T14:00:42;32.30;58.80
15625;DHT22;7912;51.376;6.126;2023-07-16T14:03:09;32.30;59.00
15625;DHT22;7912;51.376;6.126;2023-07-16T14:05:36;32.20;58.70
15625;DHT22;7912;51.376;6.126;2023-07-16T14:08:05;32.20;58.80
15625;DHT22;7912;51.376;6.126;2023-07-16T14:10:33;32.20;58.60
15625;DHT22;7912;51.376;6.126;2023-07-16T14:13:01;32.20;58.80
15625;DHT22;7912;51.376;6.126;2023-07-16T14:15:28;32.10;58.30
15625;DHT22;7912;51.376;6.126;2023-07-16T14:17:56;32.00;58.40
15625;DHT22;7912;51.376;6.126;2023-07-16T14:20:23;31.80;58.60
15625;DHT22;7912;51.376;6.126;2023-07-16T14:22:51;31.70;58.90
15625;DHT22;7912;51.376;6.126;2023-07-16T14:25:19;31.50;59.30
15625;DHT22;7912;51.376;6.126;2023-07-16T14:27:47;31.40;59.20
15625;DHT22;7912;51.376;6.126;2023-07-16T14:30:15;31.30;59.10
15625;DHT22;7912;51.376;6.126;2023-07-16T14:32:43;31.20;59.00
15625;DHT22;7912;51.376;6.126;2023-07-16T14:35:10;31.20;59.10
15625;DHT22;7912;51.376;6.126;2023-07-16T14:37:58;31.10;59.00
15625;DHT22;7912;51.376;6.126;2023-07-16T14:40:26;31.20;59.00
15625;DHT22;7912;51.376;6.126;2023-07-16T14:42:53;31.20;59.50
15625;DHT22;7912;51.376;6.126;2023-07-16T14:45:20;31.40;59.60
15625;DHT22;7912;51.376;6.126;2023-07-16T14:47:51;31.60;59.50
15625;DHT22;7912;51.376;6.126;2023-07-16T14:50:18;31.80;59.00
15625;DHT22;7912;51.376;6.126;2023-07-16T14:52:46;32.00;59.00
15625;DHT22;7912;51.376;6.126;2023-07-16T14:55:13;32.20;58.70
15625;DHT22;7912;51.376;6.126;2023-07-16T14:57:44;32.30;58.20
15625;DHT22;7912;51.376;6.126;2023-07-16T15:00:12;32.30;57.70
15625;DHT22;7912;51.376;6.126;2023-07-16T15:02:41;32.20;57.50
15625;DHT22;7912;51.376;6.126;2023-07-16T15:05:12;32.10;57.50
15625;DHT22;7912;51.376;6.126;2023-07-16T15:07:39;31.80;57.50
15625;DHT22;7912;51.376;6.126;2023-07-16T15:10:08;31.60;57.70
15625;DHT22;7912;51.376;6.126;2023-07-16T15:12:39;31.40;58.00
15625;DHT22;7912;51.376;6.126;2023-07-16T15:15:07;31.20;58.20
15625;DHT22;7912;51.376;6.126;2023-07-16T15:17:38;31.10;58.50
15625;DHT22;7912;51.376;6.126;2023-07-16T15:20:08;30.90;58.80
15625;DHT22;7912;51.376;6.126;2023-07-16T15:22:37;30.70;59.20
15625;DHT22;7912;51.376;6.126;2023-07-16T15:25:06;30.60;59.30
15625;DHT22;7912;51.376;6.126;2023-07-16T15:27:34;30.40;59.60
15625;DHT22;7912;51.376;6.126;2023-07-16T15:30:02;30.40;60.10
15625;DHT22;7912;51.376;6.126;2023-07-16T15:32:30;30.40;60.10
15625;DHT22;7912;51.376;6.126;2023-07-16T15:34:58;30.40;59.80
15625;DHT22;7912;51.376;6.126;2023-07-16T15:37:25;30.30;59.60
15625;DHT22;7912;51.376;6.126;2023-07-16T15:39:53;30.30;59.70
15625;DHT22;7912;51.376;6.126;2023-07-16T15:42:21;30.20;59.60
15625;DHT22;7912;51.376;6.126;2023-07-16T15:44:50;30.10;59.80
15625;DHT22;7912;51.376;6.126;2023-07-16T15:47:17;30.00;59.90
15625;DHT22;7912;51.376;6.126;2023-07-16T15:49:44;29.90;60.00
15625;DHT22;7912;51.376;6.126;2023-07-16T15:52:12;29.80;60.30
15625;DHT22;7912;51.376;6.126;2023-07-16T15:54:39;29.70;60.80
15625;DHT22;7912;51.376;6.126;2023-07-16T15:57:08;29.70;61.30
15625;DHT22;7912;51.376;6.126;2023-07-16T15:59:35;29.60;61.60
15625;DHT22;7912;51.376;6.126;2023-07-16T16:02:03;29.60;62.00
15625;DHT22;7912;51.376;6.126;2023-07-16T16:04:31;29.60;62.10
15625;DHT22;7912;51.376;6.126;2023-07-16T16:06:59;29.60;62.30
15625;DHT22;7912;51.376;6.126;2023-07-16T16:09:26;29.60;62.40
15625;DHT22;7912;51.376;6.126;2023-07-16T16:11:54;29.70;62.20
15625;DHT22;7912;51.376;6.126;2023-07-16T16:14:23;29.70;61.90
15625;DHT22;7912;51.376;6.126;2023-07-16T16:16:50;29.80;61.70